TIFM7: Elk River, Tiff City, MO

Data processed at Fri Mar 09 2018 23:39


All information presented herein is the property of the government of the United States of America and may be revised or deleted at any time without prior notice.
Dissemination of this information without the expressed written consent of the Public Affairs Office, Tulsa District U.S. Army Corps of Engineers is strictly prohibited.
These data are gathered electronically and, as presented, have not undergone any form of quality control. These data are not guaranteed to be valid or correct.
Go to home page.
Go to station list.

Upstream stations:

Downstream station:
Previous Day
Next Day
Current Day
    
SHEF ID:       TIFM7     Elk River near Tiff City, Mo
STATION TYPE:  

               PRECIP     STAGE  STAGE(2)  RIV-FLOW   VOLTAGE
                   in        ft        ft       cfs      volt
              Ccp-Rev   Ccp-Rev   Ccp-Rev   Ccp-Rev   Ccp-Rev
(US/Central)
03/07 00:00      0.00      4.78      4.70      1005     12.90
03/07 01:00      0.00      4.77      4.69      1000     12.80
03/07 02:00      0.00      4.75      4.70       989     12.80
03/07 03:00      0.00      4.75      4.70       989     12.80
03/07 04:00      0.00      4.74      4.70       983     12.80
03/07 05:00      0.00      4.73      4.68       977     12.80
03/07 06:00      0.00      4.73      4.67       977     12.80
03/07 07:00      0.00      4.72      4.67       972     12.80
03/07 08:00      0.00      4.71      4.66       966     12.80
03/07 09:00      0.00      4.70      4.65       961     13.10
03/07 10:00      0.00      4.69      4.66       955     14.30
03/07 11:00      0.00      4.68      4.64       950     14.10
03/07 12:00      0.00      4.69      4.63       955     14.10
03/07 13:00      0.00      4.67      4.62       944     14.40
03/07 14:00      0.00      4.67      4.62       944     14.20
03/07 15:00      0.00      4.67      4.62       944     14.50
03/07 16:00      0.00      4.66      4.60       939     13.50
03/07 17:00      0.00      4.64      4.59       928     13.10
03/07 18:00      0.00      4.63      4.57       922     13.00
03/07 19:00      0.00      4.63      4.57       922     13.00
03/07 20:00      0.00      4.62      4.56       917     12.90
03/07 21:00      0.00      4.61      4.54       912     12.90
03/07 22:00      0.00      4.59      4.54       901     12.90
03/07 23:00      0.00      4.59      4.53       901     12.90